createdAt,value
2022-09-27T00:01:07.841Z,81.84
2022-09-27T00:03:35.901Z,81.93
2022-09-27T00:06:21.598Z,82.30
2022-09-27T00:08:49.226Z,81.90
2022-09-27T00:11:27.757Z,82.16
2022-09-27T00:13:57.274Z,81.73
2022-09-27T00:16:27.160Z,81.81
2022-09-27T00:19:00.308Z,82.34
2022-09-27T00:21:30.699Z,81.74
2022-09-27T00:23:59.298Z,81.85
2022-09-27T00:26:27.667Z,81.95
2022-09-27T00:28:55.602Z,81.92
2022-09-27T00:31:29.953Z,82.16
2022-09-27T00:34:01.307Z,81.96
2022-09-27T00:36:29.799Z,81.90
2022-09-27T00:38:59.912Z,82.03
2022-09-27T00:41:34.262Z,82.13
2022-09-27T00:44:04.416Z,82.34
2022-09-27T00:46:42.743Z,81.82
2022-09-27T00:49:19.497Z,82.37
2022-09-27T00:51:53.843Z,82.37
2022-09-27T00:54:25.732Z,82.26
2022-09-27T00:56:54.056Z,82.06
2022-09-27T00:59:35.718Z,82.29
2022-09-27T01:02:05.405Z,82.02
2022-09-27T01:04:35.752Z,81.78
2022-09-27T01:07:03.363Z,82.10
2022-09-27T01:09:31.323Z,82.10
2022-09-27T01:12:17.658Z,81.90
2022-09-27T01:14:54.012Z,81.89
2022-09-27T01:17:52.809Z,82.26
2022-09-27T01:20:57.704Z,82.27
2022-09-27T01:24:01.250Z,81.81
2022-09-27T01:27:19.872Z,82.27
2022-09-27T01:30:19.086Z,82.16
2022-09-27T01:33:05.619Z,82.18
2022-09-27T01:35:59.074Z,81.90
2022-09-27T01:39:04.310Z,82.33
2022-09-27T01:41:56.843Z,82.04
2022-09-27T01:44:37.735Z,81.79
2022-09-27T01:47:29.247Z,82.17
2022-09-27T01:50:29.826Z,82.33
2022-09-27T01:53:08.271Z,82.01
2022-09-27T01:55:50.922Z,81.90
2022-09-27T01:58:51.678Z,81.94
2022-09-27T02:01:23.827Z,82.11
2022-09-27T02:03:55.046Z,81.92
2022-09-27T02:06:47.457Z,81.88
2022-09-27T02:09:31.107Z,82.10
2022-09-27T02:12:34.016Z,81.78
2022-09-27T02:15:07.082Z,81.88
2022-09-27T02:17:59.275Z,82.07
2022-09-27T02:20:39.100Z,81.80
2022-09-27T02:23:34.800Z,81.75
2022-09-27T02:26:15.032Z,81.64
2022-09-27T02:28:49.876Z,81.78
2022-09-27T02:31:25.684Z,81.62
2022-09-27T02:34:00.991Z,81.80
2022-09-27T02:36:29.305Z,81.58
2022-09-27T02:38:57.155Z,81.37
2022-09-27T02:41:24.695Z,81.51
2022-09-27T02:43:57.135Z,81.57
2022-09-27T02:47:04.268Z,81.67
2022-09-27T02:49:56.739Z,81.23
2022-09-27T02:52:57.085Z,81.09
2022-09-27T02:55:50.814Z,81.38
2022-09-27T02:58:58.374Z,81.13
2022-09-27T03:02:13.723Z,81.46
2022-09-27T03:05:18.003Z,81.26
2022-09-27T03:07:46.139Z,81.16
2022-09-27T03:10:23.641Z,81.55
2022-09-27T03:12:52.612Z,80.92
2022-09-27T03:15:20.379Z,81.36
2022-09-27T03:18:03.576Z,81.08
2022-09-27T03:20:42.974Z,81.11
2022-09-27T03:23:12.637Z,80.95
2022-09-27T03:25:42.779Z,81.17
2022-09-27T03:28:13.785Z,80.90
2022-09-27T03:30:44.602Z,80.92
2022-09-27T03:33:14.362Z,80.89
2022-09-27T03:35:43.260Z,80.80
2022-09-27T03:38:11.176Z,80.88
2022-09-27T03:40:39.743Z,80.53
2022-09-27T03:43:08.551Z,80.35
2022-09-27T03:45:36.208Z,80.39
2022-09-27T03:48:07.450Z,80.43
2022-09-27T03:50:35.051Z,80.54
2022-09-27T03:53:02.682Z,80.50
2022-09-27T03:55:31.186Z,80.35
2022-09-27T03:57:58.806Z,80.09
2022-09-27T04:00:26.633Z,80.26
2022-09-27T04:02:54.546Z,80.30
2022-09-27T04:05:22.094Z,80.10
2022-09-27T04:07:51.092Z,79.79
2022-09-27T04:10:20.508Z,79.81
2022-09-27T04:12:48.970Z,79.54
2022-09-27T04:15:17.028Z,79.43
2022-09-27T04:18:04.364Z,79.38
2022-09-27T04:20:36.048Z,78.70
2022-09-27T04:23:07.726Z,78.50
2022-09-27T04:25:39.916Z,78.09
2022-09-27T04:28:19.531Z,77.75
2022-09-27T04:30:47.269Z,77.00
2022-09-27T04:33:46.830Z,76.54
2022-09-27T04:36:28.665Z,75.65
2022-09-27T04:39:06.831Z,75.02
2022-09-27T04:41:37.764Z,74.72
2022-09-27T04:44:06.601Z,74.43
2022-09-27T04:46:35.059Z,73.85
2022-09-27T04:49:03.413Z,73.36
2022-09-27T04:51:33.223Z,72.87
2022-09-27T04:54:02.016Z,72.73
2022-09-27T04:56:33.303Z,72.16
2022-09-27T04:59:06.793Z,71.43
2022-09-27T05:01:36.064Z,71.15
2022-09-27T05:04:14.515Z,70.70
2022-09-27T05:06:46.779Z,69.99
2022-09-27T05:09:23.860Z,69.21
2022-09-27T05:11:54.465Z,68.92
2022-09-27T05:14:40.616Z,68.59
2022-09-27T05:17:08.230Z,68.03
2022-09-27T05:19:50.758Z,67.60
2022-09-27T05:22:38.267Z,66.99
2022-09-27T05:25:06.422Z,66.77
2022-09-27T05:27:34.082Z,66.43
2022-09-27T05:30:02.193Z,66.03
2022-09-27T05:32:49.420Z,65.65
2022-09-27T05:35:36.231Z,65.06
2022-09-27T05:38:04.319Z,64.59
2022-09-27T05:40:42.882Z,64.57
2022-09-27T05:43:15.406Z,64.38
2022-09-27T05:45:44.402Z,63.94
2022-09-27T05:48:14.760Z,63.01
2022-09-27T05:51:08.367Z,62.08
2022-09-27T05:53:40.247Z,61.18
2022-09-27T05:56:14.668Z,60.49
2022-09-27T05:59:02.271Z,59.56
2022-09-27T06:01:42.866Z,58.80
2022-09-27T06:04:36.077Z,57.47
2022-09-27T06:07:26.496Z,56.59
2022-09-27T06:09:56.755Z,55.65
2022-09-27T06:12:24.313Z,54.74
2022-09-27T06:14:52.851Z,53.69
2022-09-27T06:17:35.882Z,53.04
2022-09-27T06:20:10.215Z,52.07
2022-09-27T06:22:38.306Z,51.83
2022-09-27T06:25:06.358Z,51.97
2022-09-27T06:27:40.627Z,51.27
2022-09-27T06:30:20.104Z,50.15
2022-09-27T06:33:02.659Z,47.38
2022-09-27T06:35:42.654Z,48.18
2022-09-27T06:38:12.368Z,48.75
2022-09-27T06:40:47.606Z,48.79
2022-09-27T06:43:18.086Z,47.31
2022-09-27T06:46:08.949Z,46.08
2022-09-27T06:48:55.123Z,44.55
2022-09-27T06:51:23.125Z,43.21
2022-09-27T06:53:50.707Z,42.00
2022-09-27T06:56:18.454Z,41.29
2022-09-27T06:59:07.653Z,40.64
2022-09-27T07:02:01.065Z,42.02
2022-09-27T07:04:32.024Z,42.25
2022-09-27T07:07:06.291Z,40.91
2022-09-27T07:09:39.259Z,41.30
2022-09-27T07:12:07.398Z,40.75
2022-09-27T07:14:35.283Z,40.13
2022-09-27T07:17:04.245Z,39.90
2022-09-27T07:19:38.018Z,38.56
2022-09-27T07:22:06.198Z,37.74
2022-09-27T07:24:34.070Z,37.39
2022-09-27T07:27:02.300Z,36.80
2022-09-27T07:29:29.861Z,35.82
2022-09-27T07:31:57.375Z,36.53
2022-09-27T07:34:26.274Z,37.81
2022-09-27T07:36:55.142Z,37.38
2022-09-27T07:39:23.215Z,37.11
2022-09-27T07:41:50.665Z,36.30
2022-09-27T07:44:18.450Z,35.71
2022-09-27T07:47:15.017Z,36.91
2022-09-27T07:50:07.987Z,38.16
2022-09-27T07:52:58.123Z,37.54
2022-09-27T07:55:28.482Z,36.35
2022-09-27T07:58:19.421Z,35.67
2022-09-27T08:00:47.560Z,36.44
2022-09-27T08:03:17.776Z,37.39
2022-09-27T08:05:48.105Z,37.49
2022-09-27T08:08:16.873Z,37.99
2022-09-27T08:10:46.787Z,38.81
2022-09-27T08:13:18.087Z,39.01
2022-09-27T08:15:46.302Z,37.84
2022-09-27T08:18:13.901Z,36.36
2022-09-27T08:21:00.261Z,37.01
2022-09-27T08:23:27.899Z,34.94
2022-09-27T08:26:13.738Z,32.58
2022-09-27T08:28:51.079Z,33.84
2022-09-27T08:31:21.833Z,35.17
2022-09-27T08:33:51.383Z,36.49
2022-09-27T08:36:20.781Z,37.95
2022-09-27T08:38:52.215Z,39.55
2022-09-27T08:41:34.914Z,40.92
2022-09-27T08:44:16.125Z,40.84
2022-09-27T08:47:15.915Z,40.91
2022-09-27T08:49:51.535Z,41.57
2022-09-27T08:52:30.570Z,41.50
2022-09-27T08:55:05.859Z,40.01
2022-09-27T08:57:37.390Z,38.92
2022-09-27T09:00:14.929Z,35.81
2022-09-27T09:02:44.318Z,33.93
2022-09-27T09:05:17.972Z,31.82
2022-09-27T09:08:03.366Z,30.55
2022-09-27T09:11:08.935Z,30.59
2022-09-27T09:14:10.244Z,34.69
2022-09-27T09:17:19.392Z,36.46
2022-09-27T09:20:26.284Z,38.57
2022-09-27T09:23:22.314Z,40.34
2022-09-27T09:26:05.221Z,39.90
2022-09-27T09:28:43.586Z,37.74
2022-09-27T09:31:29.486Z,38.20
2022-09-27T09:34:20.299Z,38.95
2022-09-27T09:37:08.736Z,39.49
2022-09-27T09:39:43.237Z,39.51
2022-09-27T09:42:20.531Z,40.49
2022-09-27T09:44:57.208Z,39.69
2022-09-27T09:47:44.958Z,37.40
2022-09-27T09:50:17.962Z,38.54
2022-09-27T09:52:58.395Z,39.71
2022-09-27T09:55:31.653Z,40.31
2022-09-27T09:58:23.585Z,41.62
2022-09-27T10:01:00.772Z,40.11
2022-09-27T10:03:29.069Z,35.58
2022-09-27T10:05:56.715Z,32.32
2022-09-27T10:08:24.803Z,29.39
2022-09-27T10:11:17.609Z,26.62
2022-09-27T10:13:50.794Z,25.04
2022-09-27T10:16:20.916Z,23.48
2022-09-27T10:18:51.284Z,22.38
2022-09-27T10:21:26.133Z,21.69
2022-09-27T10:24:16.474Z,21.46
2022-09-27T10:27:04.245Z,22.51
2022-09-27T10:29:38.283Z,24.88
2022-09-27T10:32:27.318Z,27.30
2022-09-27T10:35:23.868Z,25.85
2022-09-27T10:37:53.389Z,25.30
2022-09-27T10:40:33.852Z,25.85
2022-09-27T10:43:32.791Z,27.48
2022-09-27T10:46:36.100Z,29.08
2022-09-27T10:49:41.447Z,31.73
2022-09-27T10:52:43.011Z,33.41
2022-09-27T10:55:36.424Z,35.29
2022-09-27T10:58:04.674Z,33.36
2022-09-27T11:00:37.123Z,33.33
2022-09-27T11:03:16.653Z,33.36
2022-09-27T11:05:45.590Z,32.12
2022-09-27T11:08:19.110Z,32.76
2022-09-27T11:11:16.456Z,32.38
2022-09-27T11:14:04.915Z,30.22
2022-09-27T11:16:50.186Z,30.67
2022-09-27T11:19:33.590Z,32.02
2022-09-27T11:22:35.858Z,33.36
2022-09-27T11:25:41.821Z,33.75
2022-09-27T11:28:36.803Z,29.24
2022-09-27T11:31:38.445Z,23.80
2022-09-27T11:34:41.305Z,22.08
2022-09-27T11:37:21.819Z,20.24
2022-09-27T11:40:04.925Z,19.36
2022-09-27T11:43:00.244Z,18.93
2022-09-27T11:48:58.670Z,20.72
2022-09-27T11:51:26.883Z,20.43
2022-09-27T11:54:18.375Z,21.92
2022-09-27T11:56:45.819Z,21.02
2022-09-27T11:59:24.921Z,20.05
2022-09-27T12:02:00.262Z,18.67
2022-09-27T12:05:08.415Z,17.96
2022-09-27T12:08:34.066Z,17.44
2022-09-27T12:11:30.584Z,19.65
2022-09-27T12:14:22.443Z,20.18
2022-09-27T12:16:55.716Z,21.83
2022-09-27T12:19:29.671Z,22.76
2022-09-27T12:22:06.763Z,21.06
2022-09-27T12:24:39.146Z,19.77
2022-09-27T12:27:46.776Z,18.04
2022-09-27T12:30:19.307Z,17.02
2022-09-27T12:33:06.386Z,16.72
2022-09-27T12:36:01.506Z,16.81
2022-09-27T12:39:02.033Z,18.75
2022-09-27T12:41:38.241Z,22.04
2022-09-27T12:44:32.247Z,24.99
2022-09-27T12:47:25.908Z,27.81
2022-09-27T12:50:00.499Z,29.61
2022-09-27T12:52:37.352Z,30.89
2022-09-27T12:55:15.585Z,33.48
2022-09-27T12:58:19.799Z,33.42
2022-09-27T13:01:18.494Z,34.04
2022-09-27T13:04:17.196Z,34.75
2022-09-27T13:06:57.025Z,35.44
2022-09-27T13:10:14.677Z,35.56
2022-09-27T13:12:50.249Z,36.31
2022-09-27T13:15:33.742Z,37.59
2022-09-27T13:18:06.849Z,38.17
2022-09-27T13:20:46.467Z,38.70
2022-09-27T13:23:32.337Z,39.21
2022-09-27T13:26:20.299Z,39.99
2022-09-27T13:28:51.598Z,40.18
2022-09-27T13:31:59.433Z,42.43
2022-09-27T13:34:44.473Z,42.14
2022-09-27T13:37:37.702Z,42.30
2022-09-27T13:40:34.342Z,43.02
2022-09-27T13:43:11.168Z,42.30
2022-09-27T13:45:57.279Z,43.59
2022-09-27T13:48:37.725Z,43.64
2022-09-27T13:51:41.894Z,43.78
2022-09-27T13:54:34.100Z,44.72
2022-09-27T13:57:07.629Z,43.94
2022-09-27T13:59:58.889Z,45.04
2022-09-27T14:02:38.159Z,45.10
2022-09-27T14:05:13.723Z,46.68
2022-09-27T14:07:43.905Z,46.41
2022-09-27T14:10:17.252Z,46.87
2022-09-27T14:12:47.519Z,46.93
2022-09-27T14:15:23.682Z,48.28
2022-09-27T14:17:53.442Z,47.75
2022-09-27T14:20:42.833Z,48.29
2022-09-27T14:23:26.505Z,48.11
2022-09-27T14:25:55.233Z,48.41
2022-09-27T14:28:27.929Z,49.38
2022-09-27T14:31:23.878Z,50.09
2022-09-27T14:34:26.790Z,48.98
2022-09-27T14:37:12.720Z,49.71
2022-09-27T14:40:05.397Z,50.54
2022-09-27T14:42:36.914Z,50.24
2022-09-27T14:45:21.620Z,51.46
2022-09-27T14:47:51.212Z,50.73
2022-09-27T14:50:29.569Z,51.45
2022-09-27T14:52:59.914Z,50.89
2022-09-27T14:55:30.520Z,51.05
2022-09-27T14:57:59.147Z,50.92
2022-09-27T15:00:32.440Z,51.87
2022-09-27T15:03:04.194Z,51.39
2022-09-27T15:05:34.482Z,51.79
2022-09-27T15:08:06.648Z,52.16
2022-09-27T15:10:38.858Z,52.47
2022-09-27T15:13:07.387Z,52.13
2022-09-27T15:15:39.858Z,53.14
2022-09-27T15:18:38.124Z,53.86
2022-09-27T15:21:06.723Z,52.88
2022-09-27T15:23:39.981Z,53.76
2022-09-27T15:26:30.009Z,53.50
2022-09-27T15:28:57.542Z,53.33
2022-09-27T15:31:36.132Z,54.85
2022-09-27T15:34:06.790Z,54.16
2022-09-27T15:36:52.055Z,55.19
2022-09-27T15:39:27.363Z,54.53
2022-09-27T15:42:17.388Z,55.44
2022-09-27T15:44:54.596Z,55.36
2022-09-27T15:47:43.385Z,54.51
2022-09-27T15:50:16.864Z,55.24
2022-09-27T15:52:56.111Z,54.96
2022-09-27T15:55:26.928Z,54.92
2022-09-27T15:58:03.855Z,55.90
2022-09-27T16:00:35.121Z,55.10
2022-09-27T16:03:02.695Z,55.37
2022-09-27T16:05:30.393Z,55.54
2022-09-27T16:08:00.394Z,55.65
2022-09-27T16:10:38.926Z,56.59
2022-09-27T16:13:06.521Z,55.78
2022-09-27T16:15:33.964Z,55.92
2022-09-27T16:18:01.362Z,55.82
2022-09-27T16:20:28.940Z,56.06
2022-09-27T16:22:57.131Z,56.28
2022-09-27T16:25:25.431Z,56.18
2022-09-27T16:27:58.623Z,56.45
2022-09-27T16:30:27.074Z,56.35
2022-09-27T16:32:54.751Z,56.17
2022-09-27T16:35:23.960Z,56.75
2022-09-27T16:37:51.506Z,56.63
2022-09-27T16:40:19.626Z,56.86
2022-09-27T16:42:50.262Z,57.48
2022-09-27T16:45:19.618Z,56.92
2022-09-27T16:47:47.910Z,57.31
2022-09-27T16:50:34.173Z,57.48
2022-09-27T16:53:01.767Z,57.54
2022-09-27T16:55:29.482Z,57.80
2022-09-27T16:57:59.994Z,58.45
2022-09-27T17:00:27.869Z,58.42
2022-09-27T17:02:55.714Z,59.05
2022-09-27T17:05:23.294Z,59.35
2022-09-27T17:07:52.495Z,59.84
2022-09-27T17:10:21.068Z,60.07
2022-09-27T17:12:49.042Z,59.68
2022-09-27T17:15:17.307Z,59.89
2022-09-27T17:17:48.488Z,59.92
2022-09-27T17:20:16.282Z,59.50
2022-09-27T17:22:43.795Z,59.66
2022-09-27T17:25:11.472Z,59.67
2022-09-27T17:27:38.963Z,59.64
2022-09-27T17:30:07.409Z,59.36
2022-09-27T17:32:35.102Z,59.33
2022-09-27T17:35:02.849Z,59.57
2022-09-27T17:37:30.767Z,59.86
2022-09-27T17:39:58.310Z,59.79
2022-09-27T17:42:25.866Z,59.95
2022-09-27T17:44:53.585Z,60.46
2022-09-27T17:47:39.906Z,60.48
2022-09-27T17:50:25.130Z,60.56
2022-09-27T17:52:53.638Z,60.76
2022-09-27T17:55:21.838Z,61.08
2022-09-27T17:57:50.361Z,61.06
2022-09-27T18:00:18.946Z,61.21
2022-09-27T18:02:46.662Z,61.08
2022-09-27T18:05:14.485Z,61.37
2022-09-27T18:07:42.403Z,61.32
2022-09-27T18:10:10.066Z,61.28
2022-09-27T18:12:39.104Z,61.41
2022-09-27T18:15:07.456Z,61.45
2022-09-27T18:17:36.437Z,61.38
2022-09-27T18:20:05.464Z,61.46
2022-09-27T18:22:32.867Z,61.51
2022-09-27T18:25:01.064Z,61.28
2022-09-27T18:27:29.335Z,61.22
2022-09-27T18:29:56.825Z,61.28
2022-09-27T18:32:24.438Z,61.47
2022-09-27T18:34:52.004Z,61.57
2022-09-27T18:37:19.490Z,61.81
2022-09-27T18:39:47.065Z,61.75
2022-09-27T18:42:14.499Z,61.88
2022-09-27T18:44:42.034Z,61.68
2022-09-27T18:47:09.480Z,61.97
2022-09-27T18:49:37.214Z,62.08
2022-09-27T18:52:04.679Z,62.14
2022-09-27T18:54:32.219Z,61.96
2022-09-27T18:56:59.895Z,62.01
2022-09-27T18:59:28.906Z,61.87
2022-09-27T19:01:56.582Z,61.81
2022-09-27T19:04:25.861Z,62.09
2022-09-27T19:06:55.093Z,62.12
2022-09-27T19:09:22.898Z,61.74
2022-09-27T19:11:50.456Z,62.01
2022-09-27T19:14:20.614Z,62.59
2022-09-27T19:16:48.853Z,62.53
2022-09-27T19:19:20.475Z,62.62
2022-09-27T19:21:49.040Z,62.45
2022-09-27T19:24:19.266Z,62.49
2022-09-27T19:26:53.566Z,62.61
2022-09-27T19:29:21.330Z,62.36
2022-09-27T19:31:48.951Z,62.07
2022-09-27T19:34:16.548Z,62.32
2022-09-27T19:36:44.109Z,62.26
2022-09-27T19:39:11.519Z,61.93
2022-09-27T19:41:40.323Z,61.95
2022-09-27T19:44:07.878Z,61.88
2022-09-27T19:46:35.499Z,62.20
2022-09-27T19:49:03.004Z,62.23
2022-09-27T19:51:31.118Z,62.33
2022-09-27T19:53:58.612Z,62.58
2022-09-27T19:56:26.439Z,62.36
2022-09-27T19:58:56.888Z,62.27
2022-09-27T20:01:25.617Z,62.44
2022-09-27T20:03:58.098Z,62.49
2022-09-27T20:06:26.202Z,62.29
2022-09-27T20:08:53.755Z,62.50
2022-09-27T20:11:23.085Z,62.34
2022-09-27T20:13:52.725Z,63.36
2022-09-27T20:16:22.520Z,63.19
2022-09-27T20:18:55.274Z,63.06
2022-09-27T20:21:25.116Z,63.02
2022-09-27T20:23:54.847Z,63.10
2022-09-27T20:26:26.599Z,63.47
2022-09-27T20:28:57.171Z,63.54
2022-09-27T20:31:27.741Z,63.72
2022-09-27T20:33:55.889Z,63.55
2022-09-27T20:36:31.895Z,63.71
2022-09-27T20:39:03.076Z,63.54
2022-09-27T20:41:33.305Z,63.86
2022-09-27T20:44:03.669Z,63.81
2022-09-27T20:46:32.451Z,63.66
2022-09-27T20:49:04.341Z,63.87
2022-09-27T20:51:33.355Z,63.64
2022-09-27T20:54:01.893Z,63.63
2022-09-27T20:56:35.707Z,64.14
2022-09-27T20:59:06.168Z,63.97
2022-09-27T21:01:33.938Z,63.58
2022-09-27T21:04:04.543Z,63.71
2022-09-27T21:06:32.977Z,63.97
2022-09-27T21:09:05.462Z,64.18
2022-09-27T21:11:33.488Z,63.77
2022-09-27T21:14:01.320Z,63.64
2022-09-27T21:16:34.535Z,63.73
2022-09-27T21:19:02.444Z,63.83
2022-09-27T21:21:30.567Z,63.69
2022-09-27T21:24:00.459Z,64.12
2022-09-27T21:26:32.828Z,63.95
2022-09-27T21:29:01.796Z,64.09
2022-09-27T21:31:34.279Z,64.23
2022-09-27T21:34:04.461Z,64.22
2022-09-27T21:36:34.435Z,64.29
2022-09-27T21:39:02.015Z,64.10
2022-09-27T21:41:29.615Z,64.36
2022-09-27T21:43:57.608Z,64.48
2022-09-27T21:46:27.569Z,64.49
2022-09-27T21:48:57.507Z,64.59
2022-09-27T21:51:27.523Z,64.50
2022-09-27T21:54:00.846Z,64.84
2022-09-27T21:56:30.527Z,64.66
2022-09-27T21:58:58.375Z,64.73
2022-09-27T22:01:29.612Z,65.27
2022-09-27T22:03:58.374Z,65.33
2022-09-27T22:06:37.983Z,65.36
2022-09-27T22:09:10.622Z,65.22
2022-09-27T22:11:42.496Z,65.78
2022-09-27T22:14:15.459Z,65.67
2022-09-27T22:16:43.031Z,65.29
2022-09-27T22:19:13.163Z,65.41
2022-09-27T22:21:41.576Z,65.49
2022-09-27T22:24:13.799Z,65.87
2022-09-27T22:26:45.467Z,65.47
2022-09-27T22:29:13.194Z,65.40
2022-09-27T22:31:40.675Z,65.26
2022-09-27T22:34:16.925Z,65.40
2022-09-27T22:36:44.535Z,65.37
2022-09-27T22:39:12.532Z,65.59
2022-09-27T22:41:40.190Z,65.45
2022-09-27T22:44:08.669Z,65.56
2022-09-27T22:46:36.149Z,65.61
2022-09-27T22:49:03.647Z,65.58
2022-09-27T22:51:31.070Z,65.52
2022-09-27T22:53:58.629Z,65.56
2022-09-27T22:56:26.014Z,65.54
2022-09-27T22:58:53.385Z,65.69
2022-09-27T23:01:23.263Z,65.81
2022-09-27T23:03:53.447Z,65.80
2022-09-27T23:06:22.459Z,65.74
2022-09-27T23:08:51.518Z,65.74
2022-09-27T23:11:21.324Z,65.72
2022-09-27T23:13:50.433Z,65.91
2022-09-27T23:16:20.396Z,65.93
2022-09-27T23:18:48.085Z,65.92
2022-09-27T23:21:16.257Z,66.09
2022-09-27T23:23:45.171Z,66.07
2022-09-27T23:26:14.860Z,65.83
2022-09-27T23:28:42.758Z,66.05
2022-09-27T23:31:17.148Z,66.39
2022-09-27T23:33:47.562Z,65.99
2022-09-27T23:36:19.258Z,66.11
2022-09-27T23:38:48.637Z,66.08
2022-09-27T23:41:17.235Z,66.29
2022-09-27T23:43:45.554Z,66.38
2022-09-27T23:46:13.144Z,66.49
2022-09-27T23:48:41.115Z,66.58
2022-09-27T23:51:11.084Z,66.96
2022-09-27T23:53:39.717Z,66.93
2022-09-27T23:56:13.542Z,67.28
2022-09-27T23:58:43.295Z,67.16
